Time;durP1;ratioP1;P1;durP2;ratioP2;P2;SDS_P1;SDS_P2;PMS_P1;PMS_P2;Temp;Humidity;BMP_temperature;BMP_pressure;BME280_temperature;BME280_humidity;BME280_pressure;Samples;Min_cycle;Max_cycle;Signal;HPM_P1;HPM_P2
2022/01/19 00:01:20;;;;;;;52.08;31.38;;;4.40;96.50;;;;;;5153695;27;20039;-79
2022/01/19 00:03:46;;;;;;;55.60;32.33;;;4.40;96.60;;;;;;5153693;27;20087;-79
2022/01/19 00:06:12;;;;;;;50.67;32.75;;;4.40;96.50;;;;;;5119260;27;20035;-79
2022/01/19 00:08:38;;;;;;;56.65;34.75;;;4.40;96.50;;;;;;5136669;27;20390;-79
2022/01/19 00:11:04;;;;;;;52.83;31.98;;;4.40;96.50;;;;;;5153676;27;20039;-79
2022/01/19 00:13:30;;;;;;;53.90;33.17;;;4.40;96.50;;;;;;5136474;27;20035;-79
2022/01/19 00:15:55;;;;;;;58.53;34.45;;;4.40;96.60;;;;;;5153539;27;20089;-79
2022/01/19 00:18:24;;;;;;;59.42;36.53;;;4.40;96.50;;;;;;5136658;27;20035;-79
2022/01/19 00:20:52;;;;;;;57.85;37.45;;;4.40;96.60;;;;;;5136569;27;20386;-79
2022/01/19 00:23:18;;;;;;;63.22;36.70;;;4.40;96.60;;;;;;5153495;27;20038;-79
2022/01/19 00:25:46;;;;;;;58.08;34.35;;;4.40;96.60;;;;;;5135573;27;20038;-79
2022/01/19 00:28:12;;;;;;;62.33;35.28;;;4.40;96.60;;;;;;5153430;27;20064;-79
2022/01/19 00:30:39;;;;;;;63.67;37.85;;;4.30;96.60;;;;;;5136121;27;20121;-78
2022/01/19 00:33:05;;;;;;;65.93;39.00;;;4.40;96.50;;;;;;5136382;27;20471;-79
2022/01/19 00:35:31;;;;;;;70.13;39.50;;;4.40;96.50;;;;;;5136032;27;20486;-79
2022/01/19 00:37:57;;;;;;;71.75;40.28;;;4.40;96.40;;;;;;5153614;27;20034;-79
2022/01/19 00:40:22;;;;;;;60.90;39.28;;;4.40;96.50;;;;;;5150669;27;20529;-79
2022/01/19 00:42:49;;;;;;;66.90;38.53;;;4.40;96.50;;;;;;5139424;27;20126;-79
2022/01/19 00:45:15;;;;;;;66.03;38.92;;;4.40;96.50;;;;;;5122483;27;20065;-79
2022/01/19 00:47:42;;;;;;;56.95;33.67;;;4.40;96.50;;;;;;5157051;27;20073;-79
2022/01/19 00:50:11;;;;;;;48.53;32.03;;;4.30;96.50;;;;;;5156906;27;20470;-79
2022/01/19 00:52:37;;;;;;;57.45;28.90;;;4.30;96.40;;;;;;5156689;27;20125;-79
2022/01/19 00:55:08;;;;;;;48.10;28.35;;;4.30;96.40;;;;;;5156848;27;20130;-79
2022/01/19 00:57:35;;;;;;;54.35;31.02;;;4.30;96.20;;;;;;5156681;27;20046;-78
2022/01/19 01:00:02;;;;;;;53.63;32.45;;;4.30;96.40;;;;;;5156568;27;20084;-81
2022/01/19 01:02:28;;;;;;;61.08;38.72;;;4.30;96.40;;;;;;5156459;27;20042;-79
2022/01/19 01:04:54;;;;;;;57.83;33.90;;;4.30;96.10;;;;;;5139284;27;20034;-79
2022/01/19 01:07:19;;;;;;;62.72;38.97;;;4.30;96.20;;;;;;5122166;27;20034;-79
2022/01/19 01:09:45;;;;;;;64.82;40.72;;;4.20;96.30;;;;;;5156857;27;20034;-78
2022/01/19 01:12:13;;;;;;;55.65;32.47;;;4.20;96.50;;;;;;5156441;27;20129;-78
2022/01/19 01:20:11;;;;;;;61.17;33.42;;;4.10;96.50;;;;;;5156366;27;20044;-79
2022/01/19 01:22:38;;;;;;;64.72;37.20;;;4.10;96.50;;;;;;5138834;27;20542;-79
2022/01/19 01:25:05;;;;;;;72.95;38.80;;;4.10;96.60;;;;;;5156487;27;20061;-80
2022/01/19 01:27:32;;;;;;;60.55;37.38;;;4.10;96.60;;;;;;5139057;27;20063;-80
2022/01/19 01:29:57;;;;;;;59.00;34.60;;;4.10;96.80;;;;;;5139134;27;20078;-79
2022/01/19 01:32:23;;;;;;;58.15;33.45;;;4.10;96.90;;;;;;5105332;27;20046;-80
2022/01/19 01:34:51;;;;;;;62.33;35.30;;;4.00;96.80;;;;;;5156718;27;20532;-79
2022/01/19 01:37:18;;;;;;;86.00;45.83;;;4.00;96.80;;;;;;5158513;27;20042;-79
2022/01/19 01:39:43;;;;;;;78.97;42.78;;;4.00;96.70;;;;;;5142680;27;20042;-79
2022/01/19 01:42:15;;;;;;;90.43;41.83;;;3.90;96.80;;;;;;5159577;27;20054;-79
2022/01/19 01:44:44;;;;;;;67.25;34.63;;;3.80;97.10;;;;;;5142642;27;20498;-79
2022/01/19 01:47:12;;;;;;;84.50;41.30;;;3.90;97.00;;;;;;5142998;27;20505;-79
2022/01/19 01:55:18;;;;;;;87.78;37.47;;;3.90;97.30;;;;;;5159615;27;20084;-79
2022/01/19 01:57:43;;;;;;;96.15;37.22;;;3.90;97.40;;;;;;5159725;27;20486;-79
2022/01/19 02:00:12;;;;;;;102.85;41.03;;;3.90;97.90;;;;;;5142354;27;20037;-79
2022/01/19 02:02:40;;;;;;;110.10;39.20;;;3.90;97.70;;;;;;5159593;27;20053;-79
2022/01/19 02:05:09;;;;;;;113.20;39.33;;;3.90;97.80;;;;;;5159708;27;20038;-79
2022/01/19 02:07:59;;;;;;;112.15;39.90;;;3.90;98.20;;;;;;5159691;27;20046;-80
2022/01/19 02:15:48;;;;;;;125.47;45.70;;;4.00;98.50;;;;;;5159314;27;20042;-79
2022/01/19 02:23:52;;;;;;;152.45;50.45;;;4.10;98.50;;;;;;5159444;27;20161;-79
2022/01/19 02:26:34;;;;;;;142.70;48.85;;;4.10;98.60;;;;;;5142496;27;20042;-80
2022/01/19 02:29:13;;;;;;;138.32;49.05;;;4.10;98.60;;;;;;5158881;27;20053;-80
2022/01/19 02:36:31;;;;;;;135.48;45.50;;;4.10;98.60;;;;;;5143636;27;20038;-80
2022/01/19 02:42:43;;;;;;;148.18;49.13;;;4.10;98.20;;;;;;5158569;27;20508;-79
2022/01/19 02:50:25;;;;;;;110.50;36.22;;;4.10;98.30;;;;;;5158444;27;20049;-81
2022/01/19 02:52:50;;;;;;;115.47;37.70;;;4.00;98.40;;;;;;5141549;27;20038;-79
2022/01/19 02:55:16;;;;;;;116.05;38.10;;;4.00;98.30;;;;;;5124061;27;20501;-79
2022/01/19 02:57:42;;;;;;;109.68;36.75;;;3.90;98.30;;;;;;5158548;27;20131;-80
2022/01/19 03:11:06;;;;;;;135.88;37.58;;;3.90;98.60;;;;;;5158459;27;20073;-79
2022/01/19 03:13:32;;;;;;;103.18;31.35;;;3.80;98.60;;;;;;5140931;27;20525;-79
2022/01/19 03:15:57;;;;;;;114.80;33.38;;;3.80;98.50;;;;;;5140782;27;20125;-79
2022/01/19 03:18:23;;;;;;;117.40;33.80;;;3.80;98.40;;;;;;5123751;27;20069;-79
2022/01/19 03:20:49;;;;;;;125.22;34.50;;;3.70;98.40;;;;;;5123907;27;20097;-80
2022/01/19 03:23:20;;;;;;;116.68;34.00;;;3.60;98.40;;;;;;5123347;27;20458;-79
2022/01/19 03:25:47;;;;;;;133.13;31.20;;;3.60;98.50;;;;;;5125289;27;20038;-79
2022/01/19 03:28:13;;;;;;;126.70;33.72;;;3.60;98.50;;;;;;5158156;27;20156;-79
2022/01/19 03:30:39;;;;;;;128.93;34.17;;;3.60;98.40;;;;;;5140521;27;20533;-80
2022/01/19 03:33:05;;;;;;;109.35;32.10;;;3.60;98.40;;;;;;5140633;27;20508;-80
2022/01/19 03:35:31;;;;;;;126.72;33.30;;;3.60;98.60;;;;;;5157705;27;20038;-79
2022/01/19 03:37:57;;;;;;;122.28;33.97;;;3.60;98.40;;;;;;5140469;27;20069;-80
2022/01/19 03:40:22;;;;;;;134.93;32.95;;;3.60;98.30;;;;;;5157549;27;20038;-79
2022/01/19 03:42:49;;;;;;;96.45;30.52;;;3.60;98.30;;;;;;5136678;27;20077;-80
2022/01/19 03:45:15;;;;;;;106.03;30.75;;;3.60;98.30;;;;;;5153999;27;20466;-80
2022/01/19 03:47:45;;;;;;;133.35;33.88;;;3.50;98.50;;;;;;5154475;27;20117;-80
2022/01/19 03:50:12;;;;;;;142.25;35.28;;;3.50;98.40;;;;;;5137697;27;20039;-79
2022/01/19 03:52:38;;;;;;;120.90;33.20;;;3.50;98.50;;;;;;5154226;27;20030;-80
2022/01/19 03:55:05;;;;;;;116.72;33.90;;;3.60;98.40;;;;;;5136955;27;20394;-79
2022/01/19 03:57:31;;;;;;;146.52;37.10;;;3.50;98.50;;;;;;5154145;27;20101;-79
2022/01/19 03:59:57;;;;;;;177.60;39.72;;;3.50;98.50;;;;;;5136584;27;20494;-79
2022/01/19 04:02:23;;;;;;;173.10;42.03;;;3.60;98.40;;;;;;5136679;27;20085;-79
2022/01/19 04:05:02;;;;;;;111.70;34.85;;;3.60;98.50;;;;;;5153740;27;20034;-79
2022/01/19 04:07:28;;;;;;;142.23;38.03;;;3.60;98.30;;;;;;5136447;27;20478;-79
2022/01/19 04:09:53;;;;;;;129.13;37.35;;;3.60;98.50;;;;;;5136445;27;20077;-79
2022/01/19 04:12:31;;;;;;;124.80;36.80;;;3.60;98.60;;;;;;5136575;27;20042;-79
2022/01/19 04:14:57;;;;;;;96.63;32.90;;;3.60;98.50;;;;;;5138160;27;20044;-80
2022/01/19 04:17:23;;;;;;;135.27;36.97;;;3.60;98.50;;;;;;5119735;27;20421;-79
2022/01/19 04:19:49;;;;;;;157.10;38.85;;;3.60;98.30;;;;;;5153849;27;20050;-79
2022/01/19 04:22:18;;;;;;;143.73;36.95;;;3.60;98.40;;;;;;5136077;27;20098;-79
2022/01/19 04:24:47;;;;;;;144.20;38.17;;;3.50;98.60;;;;;;5136487;27;20045;-79
2022/01/19 04:30:01;;;;;;;135.88;34.70;;;3.60;98.40;;;;;;5153389;27;20078;-79
2022/01/19 04:32:44;;;;;;;107.30;32.78;;;3.50;98.40;;;;;;5136219;27;20038;-80
2022/01/19 04:35:13;;;;;;;113.57;36.67;;;3.50;98.40;;;;;;5138638;27;20433;-79
2022/01/19 05:07:38;;;;;;;72.65;27.85;;;3.50;98.30;;;;;;5153156;27;20051;-79
2022/01/19 05:15:18;;;;;;;69.63;28.58;;;3.50;98.20;;;;;;5157241;27;20095;-79
2022/01/19 05:17:44;;;;;;;69.75;27.90;;;3.60;98.20;;;;;;5139810;27;20034;-79
2022/01/19 05:20:11;;;;;;;78.78;29.30;;;3.50;98.00;;;;;;5139620;27;20041;-79
2022/01/19 05:22:37;;;;;;;70.35;27.98;;;3.50;98.10;;;;;;5139638;27;20050;-79
2022/01/19 05:25:03;;;;;;;71.97;29.30;;;3.50;98.00;;;;;;5139512;27;20034;-79
2022/01/19 05:27:29;;;;;;;85.95;32.20;;;3.50;98.00;;;;;;5122627;27;20106;-79
2022/01/19 05:29:55;;;;;;;78.45;30.10;;;3.50;98.00;;;;;;5139757;27;20034;-79
2022/01/19 05:32:22;;;;;;;72.75;30.23;;;3.50;98.10;;;;;;5139493;27;20545;-79
2022/01/19 05:34:48;;;;;;;95.68;31.02;;;3.50;98.10;;;;;;5139302;27;20035;-79
2022/01/19 05:37:14;;;;;;;87.15;32.00;;;3.60;97.90;;;;;;5139418;27;20042;-79
2022/01/19 05:39:41;;;;;;;95.75;34.13;;;3.50;98.00;;;;;;5139338;27;20034;-79
2022/01/19 05:42:13;;;;;;;88.72;31.92;;;3.50;98.00;;;;;;5156187;27;20061;-78
2022/01/19 05:44:39;;;;;;;76.68;28.27;;;3.50;98.00;;;;;;5139245;27;20106;-79
2022/01/19 05:47:05;;;;;;;77.78;30.27;;;3.50;98.00;;;;;;5156402;27;20041;-78
2022/01/19 05:49:31;;;;;;;78.30;32.42;;;3.50;98.10;;;;;;5156303;27;20401;-79
2022/01/19 05:51:56;;;;;;;89.93;32.08;;;3.50;98.10;;;;;;5139364;27;20395;-79
2022/01/19 05:54:23;;;;;;;73.40;29.85;;;3.50;98.10;;;;;;5156303;27;20035;-78
2022/01/19 05:56:50;;;;;;;93.97;33.00;;;3.50;98.10;;;;;;5156402;27;20125;-78
2022/01/19 05:59:16;;;;;;;87.03;30.98;;;3.50;98.10;;;;;;5138960;27;20498;-79
2022/01/19 06:01:42;;;;;;;85.18;33.03;;;3.50;98.20;;;;;;5138792;27;20035;-78
2022/01/19 06:04:08;;;;;;;70.60;30.13;;;3.40;98.30;;;;;;5156079;27;20045;-78
2022/01/19 06:06:34;;;;;;;94.28;33.20;;;3.40;98.30;;;;;;5155881;27;20035;-79
2022/01/19 06:09:02;;;;;;;82.30;31.60;;;3.40;98.30;;;;;;5139027;27;20042;-79
2022/01/19 06:11:28;;;;;;;86.82;31.40;;;3.40;98.30;;;;;;5139333;27;20035;-78
2022/01/19 06:13:53;;;;;;;92.35;34.22;;;3.40;98.30;;;;;;5138647;27;20034;-79
2022/01/19 06:16:19;;;;;;;77.72;33.00;;;3.50;98.30;;;;;;5138507;27;20043;-78
2022/01/19 06:18:45;;;;;;;79.95;30.67;;;3.50;98.30;;;;;;5138557;27;20035;-78
2022/01/19 06:21:10;;;;;;;77.82;32.70;;;3.50;98.30;;;;;;5155701;27;20043;-79
2022/01/19 06:23:37;;;;;;;87.80;33.45;;;3.50;98.30;;;;;;5154552;27;20375;-78
2022/01/19 06:26:06;;;;;;;81.38;31.95;;;3.40;98.20;;;;;;5138364;27;20474;-79
2022/01/19 06:28:32;;;;;;;82.70;31.75;;;3.50;98.30;;;;;;5138493;27;20482;-79
2022/01/19 06:30:58;;;;;;;89.18;34.05;;;3.50;98.20;;;;;;5155556;27;20486;-79
2022/01/19 06:33:24;;;;;;;96.15;35.28;;;3.50;98.20;;;;;;5155498;27;20038;-79
2022/01/19 06:35:50;;;;;;;92.75;33.60;;;3.50;98.20;;;;;;5155603;27;20042;-79
2022/01/19 06:38:16;;;;;;;88.05;34.25;;;3.50;98.30;;;;;;5138114;27;20121;-79
2022/01/19 06:40:42;;;;;;;87.78;33.45;;;3.50;98.30;;;;;;5155401;27;20130;-78
2022/01/19 06:43:07;;;;;;;78.45;34.13;;;3.50;98.20;;;;;;5137940;27;20082;-78
2022/01/19 06:45:33;;;;;;;94.05;36.30;;;3.50;98.30;;;;;;5138041;27;20086;-79
2022/01/19 06:47:59;;;;;;;89.80;35.90;;;3.50;98.30;;;;;;5138149;27;20149;-79
2022/01/19 06:50:25;;;;;;;89.45;33.70;;;3.50;98.30;;;;;;5155170;27;20034;-78
2022/01/19 06:52:51;;;;;;;84.63;34.13;;;3.50;98.30;;;;;;5138338;27;20100;-78
2022/01/19 06:55:18;;;;;;;79.53;34.88;;;3.50;98.30;;;;;;5137669;27;20491;-79
2022/01/19 06:57:44;;;;;;;87.68;33.17;;;3.50;98.40;;;;;;5137953;27;20035;-79
2022/01/19 07:00:12;;;;;;;90.80;35.60;;;3.50;98.40;;;;;;5155053;27;20053;-80
2022/01/19 07:02:37;;;;;;;83.95;33.90;;;3.50;98.30;;;;;;5103717;27;20486;-79
2022/01/19 07:05:04;;;;;;;90.60;36.95;;;3.50;98.40;;;;;;5155141;27;20041;-79
2022/01/19 07:07:30;;;;;;;85.03;34.45;;;3.60;98.40;;;;;;5120799;27;20134;-79
2022/01/19 07:09:56;;;;;;;88.40;36.42;;;3.50;98.40;;;;;;5137529;27;20034;-79
2022/01/19 07:12:22;;;;;;;93.63;37.20;;;3.60;98.40;;;;;;5137695;27;20091;-79
2022/01/19 07:14:48;;;;;;;89.95;35.25;;;3.60;98.40;;;;;;5154583;27;20038;-79
2022/01/19 07:17:14;;;;;;;84.85;35.33;;;3.60;98.40;;;;;;5137257;27;20121;-79
2022/01/19 07:19:40;;;;;;;77.53;34.50;;;3.60;98.40;;;;;;5154399;27;20050;-79
2022/01/19 07:22:06;;;;;;;85.20;38.17;;;3.70;98.30;;;;;;5153264;27;20043;-79
2022/01/19 07:24:32;;;;;;;82.38;35.72;;;3.60;98.30;;;;;;5154157;27;20034;-79
2022/01/19 07:26:58;;;;;;;78.57;36.05;;;3.70;98.30;;;;;;5136343;27;20031;-80
2022/01/19 07:29:24;;;;;;;94.22;37.75;;;3.70;98.30;;;;;;5136269;27;20033;-80
2022/01/19 07:31:51;;;;;;;91.28;38.95;;;3.70;98.30;;;;;;5136268;27;20042;-80
2022/01/19 07:34:17;;;;;;;87.78;35.55;;;3.70;98.30;;;;;;5153654;27;20049;-80
2022/01/19 07:36:42;;;;;;;83.28;37.63;;;3.80;98.30;;;;;;5135374;27;20042;-79
2022/01/19 07:39:09;;;;;;;80.75;34.95;;;3.80;98.30;;;;;;5136778;27;20402;-79
2022/01/19 07:41:35;;;;;;;82.45;36.45;;;3.80;98.30;;;;;;5136552;27;20090;-79
2022/01/19 07:44:01;;;;;;;90.63;36.05;;;3.80;98.20;;;;;;5153574;27;20550;-79
2022/01/19 07:46:26;;;;;;;82.95;38.45;;;3.90;98.20;;;;;;5153706;27;20039;-79
2022/01/19 07:48:53;;;;;;;84.65;37.55;;;3.90;98.40;;;;;;5136769;27;20038;-79
2022/01/19 07:51:18;;;;;;;83.32;38.15;;;3.90;98.30;;;;;;5153740;27;20505;-79
2022/01/19 07:53:44;;;;;;;86.47;37.08;;;3.90;98.30;;;;;;5154154;27;20039;-80
2022/01/19 07:56:10;;;;;;;81.68;35.55;;;4.00;98.40;;;;;;5136463;27;20130;-80
2022/01/19 07:58:36;;;;;;;86.32;36.40;;;3.90;98.30;;;;;;5136746;27;20130;-80
2022/01/19 08:01:01;;;;;;;81.63;34.35;;;3.90;98.30;;;;;;5136438;27;20398;-79
2022/01/19 08:03:27;;;;;;;90.55;37.35;;;3.90;98.30;;;;;;5136517;27;20030;-78
2022/01/19 08:05:53;;;;;;;80.03;37.13;;;3.90;98.20;;;;;;5153339;27;20066;-79
2022/01/19 08:08:18;;;;;;;81.68;33.50;;;4.00;98.30;;;;;;5136401;27;20042;-78
2022/01/19 08:10:45;;;;;;;83.82;34.63;;;4.00;98.20;;;;;;5136213;27;20122;-79
2022/01/19 08:13:11;;;;;;;77.00;35.70;;;4.10;98.20;;;;;;5136470;27;20088;-79
2022/01/19 08:15:37;;;;;;;76.78;35.08;;;4.10;98.30;;;;;;5153702;27;20110;-78
2022/01/19 08:18:04;;;;;;;76.55;35.40;;;4.10;98.10;;;;;;5153598;27;20467;-79
2022/01/19 08:20:29;;;;;;;72.63;34.75;;;4.20;98.10;;;;;;5153460;27;20046;-78
2022/01/19 08:22:55;;;;;;;73.72;32.42;;;4.20;98.10;;;;;;5153508;27;20035;-78
2022/01/19 08:25:21;;;;;;;71.10;33.33;;;4.30;98.00;;;;;;5136202;27;20038;-78
2022/01/19 08:27:47;;;;;;;76.13;32.85;;;4.30;97.80;;;;;;5153471;27;20030;-78
2022/01/19 08:30:13;;;;;;;73.20;34.28;;;4.30;97.90;;;;;;5135940;27;20038;-79
2022/01/19 08:32:39;;;;;;;73.43;35.40;;;4.40;97.80;;;;;;5136068;27;20054;-79
2022/01/19 08:35:07;;;;;;;67.50;32.55;;;4.40;97.80;;;;;;5153370;27;20050;-79
2022/01/19 08:37:33;;;;;;;72.28;31.20;;;4.40;97.80;;;;;;5153251;27;20038;-79
2022/01/19 08:40:00;;;;;;;69.90;31.88;;;4.50;97.80;;;;;;5135998;27;20119;-79
2022/01/19 08:42:36;;;;;;;77.13;34.60;;;4.50;97.60;;;;;;5136004;27;20055;-79
2022/01/19 08:45:07;;;;;;;73.50;34.08;;;4.50;97.60;;;;;;5137187;27;20402;-77
2022/01/19 08:47:34;;;;;;;73.47;38.03;;;4.50;97.70;;;;;;5156101;27;20074;-78
2022/01/19 08:50:00;;;;;;;80.30;40.45;;;4.50;97.60;;;;;;5157670;27;20047;-78
2022/01/19 08:52:25;;;;;;;78.97;38.55;;;4.60;97.60;;;;;;5140755;27;20051;-77
2022/01/19 08:54:51;;;;;;;77.28;35.95;;;4.50;97.50;;;;;;5157460;27;20042;-78
2022/01/19 08:57:18;;;;;;;75.22;34.72;;;4.50;97.50;;;;;;5123259;27;20130;-77
2022/01/19 08:59:44;;;;;;;75.55;37.92;;;4.50;97.40;;;;;;5157649;27;20034;-78
2022/01/19 09:02:10;;;;;;;78.13;36.35;;;4.60;97.50;;;;;;5139828;27;20379;-79
2022/01/19 09:04:36;;;;;;;70.45;33.55;;;4.60;97.50;;;;;;5123167;27;20034;-77
2022/01/19 09:07:02;;;;;;;69.63;33.13;;;4.60;97.50;;;;;;5140059;27;20042;-77
2022/01/19 09:09:28;;;;;;;73.05;33.60;;;4.60;97.50;;;;;;5157538;27;20031;-78
2022/01/19 09:11:54;;;;;;;79.53;35.00;;;4.60;97.50;;;;;;5157205;27;20505;-77
2022/01/19 09:14:20;;;;;;;82.03;37.75;;;4.60;97.40;;;;;;5157376;27;20039;-78
2022/01/19 09:16:49;;;;;;;92.30;45.35;;;4.60;97.30;;;;;;5157018;27;20509;-80
2022/01/19 09:19:16;;;;;;;91.00;41.63;;;4.60;97.40;;;;;;5139200;27;20372;-78
2022/01/19 09:21:42;;;;;;;85.00;38.20;;;4.60;97.30;;;;;;5156001;27;20066;-77
2022/01/19 09:24:10;;;;;;;80.00;37.95;;;4.60;97.40;;;;;;5156939;27;20516;-79
2022/01/19 09:26:36;;;;;;;83.82;40.65;;;4.60;97.30;;;;;;5140102;27;20034;-78
2022/01/19 09:29:03;;;;;;;86.35;41.58;;;4.60;97.30;;;;;;5156745;27;20482;-78
2022/01/19 09:31:29;;;;;;;82.50;40.50;;;4.60;97.40;;;;;;5139812;27;20398;-78
2022/01/19 09:34:05;;;;;;;87.18;39.75;;;4.60;97.30;;;;;;5156420;27;20030;-79
2022/01/19 09:36:34;;;;;;;89.72;41.03;;;4.50;97.30;;;;;;5140961;27;20122;-79
2022/01/19 09:39:01;;;;;;;86.78;42.08;;;4.60;97.30;;;;;;5139249;27;20049;-78
2022/01/19 09:41:29;;;;;;;83.88;41.10;;;4.60;97.20;;;;;;5138682;27;20103;-79
2022/01/19 09:43:55;;;;;;;86.50;38.38;;;4.60;97.20;;;;;;5139502;27;20545;-79
2022/01/19 09:46:22;;;;;;;79.40;38.20;;;4.60;97.10;;;;;;5156514;27;20042;-79
2022/01/19 09:48:47;;;;;;;87.20;39.55;;;4.60;97.10;;;;;;5156211;27;20037;-79
2022/01/19 09:51:14;;;;;;;86.10;41.70;;;4.60;97.10;;;;;;5156260;27;20118;-79
2022/01/19 09:53:41;;;;;;;84.03;37.03;;;4.60;97.10;;;;;;5156420;27;20053;-78
2022/01/19 09:56:07;;;;;;;88.13;40.63;;;4.60;97.20;;;;;;5140757;27;20073;-78
2022/01/19 09:58:33;;;;;;;85.30;41.38;;;4.60;97.10;;;;;;5157527;27;20034;-79
2022/01/19 10:00:59;;;;;;;86.07;39.83;;;4.60;97.10;;;;;;5138892;27;20379;-79
2022/01/19 10:03:31;;;;;;;92.30;48.03;;;4.70;97.00;;;;;;5156005;27;20035;-79
2022/01/19 10:06:11;;;;;;;86.13;42.20;;;4.60;97.10;;;;;;5156077;27;20035;-79
2022/01/19 10:08:44;;;;;;;84.53;40.88;;;4.60;97.00;;;;;;5139094;27;20046;-79
2022/01/19 10:17:06;;;;;;;76.60;36.22;;;4.70;97.10;;;;;;5156131;27;20100;-78
2022/01/19 10:19:38;;;;;;;79.55;37.97;;;4.80;97.10;;;;;;5138463;27;20066;-78
2022/01/19 10:22:18;;;;;;;71.10;34.92;;;4.90;96.70;;;;;;5155963;27;20087;-78
2022/01/19 10:24:53;;;;;;;70.88;36.67;;;5.00;96.70;;;;;;5138850;27;20391;-79
2022/01/19 10:27:28;;;;;;;74.07;36.47;;;5.10;96.40;;;;;;5156216;27;20047;-79
2022/01/19 10:29:53;;;;;;;70.43;37.08;;;5.10;96.00;;;;;;5155644;27;20037;-79
2022/01/19 10:32:25;;;;;;;67.20;35.65;;;5.20;96.00;;;;;;5155603;27;20129;-79
2022/01/19 10:34:52;;;;;;;67.22;33.03;;;5.20;95.70;;;;;;5155833;27;20455;-79
2022/01/19 10:37:23;;;;;;;70.82;37.65;;;5.30;95.80;;;;;;5155547;27;20041;-79
2022/01/19 10:39:51;;;;;;;63.65;33.13;;;5.30;95.60;;;;;;5138227;27;20046;-79
2022/01/19 10:42:23;;;;;;;68.80;34.65;;;5.40;95.60;;;;;;5155353;27;20047;-79
2022/01/19 10:45:11;;;;;;;66.10;32.97;;;5.40;95.40;;;;;;5155592;27;20375;-79
2022/01/19 10:47:47;;;;;;;72.00;37.42;;;5.50;95.40;;;;;;5155381;27;20083;-79
2022/01/19 10:50:21;;;;;;;69.18;37.25;;;5.40;95.30;;;;;;5138057;27;20482;-79
2022/01/19 10:52:47;;;;;;;;;;;5.50;95.40;;;;;;5155687;27;20034;-79
2022/01/19 10:55:19;;;;;;;71.15;33.75;;;5.40;95.40;;;;;;5155117;27;19914;-79
2022/01/19 10:57:45;;;;;;;67.72;32.85;;;5.50;95.40;;;;;;5155173;27;20037;-78
2022/01/19 11:00:21;;;;;;;66.70;34.58;;;5.60;95.30;;;;;;5155254;27;20058;-78
2022/01/19 11:02:49;;;;;;;61.97;33.42;;;5.60;95.20;;;;;;5137734;27;20042;-79
2022/01/19 11:05:15;;;;;;;65.35;33.00;;;5.60;95.10;;;;;;5137657;27;20039;-78
2022/01/19 11:07:41;;;;;;;60.17;31.23;;;5.70;95.10;;;;;;5154954;27;20042;-78
2022/01/19 11:10:11;;;;;;;56.42;29.45;;;5.80;95.10;;;;;;5136957;27;20142;-79
2022/01/19 11:12:50;;;;;;;48.22;27.15;;;5.90;94.60;;;;;;5154900;27;20046;-79
2022/01/19 11:15:19;;;;;;;49.58;28.90;;;6.10;94.50;;;;;;5154841;27;20091;-79
2022/01/19 11:17:49;;;;;;;50.28;26.80;;;6.20;94.10;;;;;;5154332;27;20049;-79
2022/01/19 11:20:24;;;;;;;60.50;27.73;;;6.30;93.90;;;;;;5137148;27;20066;-78
2022/01/19 11:23:08;;;;;;;59.45;29.98;;;6.40;93.20;;;;;;5154591;27;20039;-79
2022/01/19 11:26:00;;;;;;;57.83;29.38;;;6.60;93.60;;;;;;5154387;27;20086;-79
2022/01/19 11:28:28;;;;;;;56.17;28.15;;;6.60;93.10;;;;;;5154604;27;20131;-79
2022/01/19 11:30:54;;;;;;;55.15;27.38;;;6.50;92.90;;;;;;5137118;27;20490;-80
2022/01/19 11:33:26;;;;;;;69.30;32.90;;;6.50;92.60;;;;;;5137165;27;20085;-79
2022/01/19 11:35:57;;;;;;;44.08;24.50;;;6.40;92.80;;;;;;5137022;27;20043;-78
2022/01/19 11:38:41;;;;;;;52.75;26.85;;;6.30;93.10;;;;;;5137322;27;20107;-79
2022/01/19 11:41:09;;;;;;;72.90;32.13;;;6.30;92.40;;;;;;5154642;27;20141;-79
2022/01/19 11:43:39;;;;;;;37.55;19.58;;;6.30;92.90;;;;;;5154140;27;20129;-78
2022/01/19 11:46:24;;;;;;;18.15;10.32;;;6.30;92.50;;;;;;5153953;27;20078;-79
2022/01/19 11:48:50;;;;;;;23.10;10.88;;;6.30;92.10;;;;;;5154234;27;20046;-78
2022/01/19 11:51:35;;;;;;;19.75;11.23;;;6.30;90.80;;;;;;5153901;27;20038;-79
2022/01/19 11:54:11;;;;;;;19.88;10.55;;;6.40;89.50;;;;;;5136332;27;20047;-79
2022/01/19 11:57:07;;;;;;;20.50;10.63;;;6.40;89.60;;;;;;5153734;27;20578;-79
2022/01/19 11:59:34;;;;;;;;;;;6.40;89.90;;;;;;5147031;27;20561;-79
2022/01/19 12:02:26;;;;;;;19.40;9.93;;;6.40;89.80;;;;;;5136454;27;20009;-78
2022/01/19 12:04:58;;;;;;;20.25;9.68;;;6.40;90.00;;;;;;5154118;27;20125;-79
2022/01/19 12:07:41;;;;;;;27.48;11.20;;;6.30;89.70;;;;;;5153730;27;20490;-79
2022/01/19 12:10:31;;;;;;;27.38;11.77;;;6.30;90.30;;;;;;5153765;27;20034;-78
2022/01/19 12:16:27;;;;;;;21.98;9.82;;;6.30;90.20;;;;;;5153707;27;20093;-77
2022/01/19 12:18:54;;;;;;;22.67;9.13;;;6.30;90.00;;;;;;5153911;27;20042;-77
2022/01/19 12:21:29;;;;;;;24.75;10.57;;;6.30;90.00;;;;;;5152633;27;20521;-76
2022/01/19 12:23:55;;;;;;;24.13;9.43;;;6.30;90.30;;;;;;5153432;27;20491;-78
2022/01/19 12:26:21;;;;;;;23.13;10.50;;;6.30;90.60;;;;;;5136131;27;20038;-78
2022/01/19 12:28:50;;;;;;;19.63;9.13;;;6.30;90.80;;;;;;5136383;27;20446;-78
2022/01/19 12:31:22;;;;;;;21.67;9.95;;;6.30;91.10;;;;;;5153795;27;20390;-78
2022/01/19 12:34:03;;;;;;;21.63;8.90;;;6.40;91.00;;;;;;5153726;27;20048;-78
2022/01/19 12:36:51;;;;;;;21.65;8.55;;;6.50;91.20;;;;;;5153362;27;20054;-78
2022/01/19 12:39:26;;;;;;;18.17;8.70;;;6.50;90.80;;;;;;5153828;27;20050;-78
2022/01/19 12:42:44;;;;;;;18.85;8.93;;;6.50;90.70;;;;;;5152957;27;20051;-78
2022/01/19 12:45:29;;;;;;;15.65;8.20;;;6.50;90.00;;;;;;5073906;28;20395;-78
2022/01/19 12:47:57;;;;;;;17.45;7.30;;;6.50;89.90;;;;;;5073872;28;20488;-78
2022/01/19 12:50:29;;;;;;;16.95;7.72;;;6.50;89.80;;;;;;5115817;27;20111;-78
2022/01/19 12:52:58;;;;;;;20.55;8.18;;;6.50;89.60;;;;;;5137106;27;20039;-78
2022/01/19 12:55:29;;;;;;;19.10;7.20;;;6.60;89.60;;;;;;5153182;27;20550;-77
2022/01/19 12:57:57;;;;;;;16.75;6.18;;;6.60;89.40;;;;;;5153338;27;20070;-78
2022/01/19 13:00:32;;;;;;;21.42;9.07;;;6.60;89.50;;;;;;5135942;27;20510;-78
2022/01/19 13:02:58;;;;;;;22.52;8.35;;;6.60;89.50;;;;;;5135950;27;20474;-78
2022/01/19 13:05:30;;;;;;;21.35;7.95;;;6.50;89.80;;;;;;5153289;27;20464;-78
2022/01/19 13:08:02;;;;;;;21.92;7.15;;;6.50;90.00;;;;;;5153460;27;20027;-78
2022/01/19 13:10:45;;;;;;;20.08;8.40;;;6.60;89.90;;;;;;5136065;27;20091;-78
2022/01/19 13:13:13;;;;;;;17.40;7.25;;;6.50;89.90;;;;;;5136130;27;20039;-78
2022/01/19 13:15:46;;;;;;;21.85;9.10;;;6.50;90.20;;;;;;5153019;27;20129;-80
2022/01/19 13:18:15;;;;;;;24.17;10.07;;;6.50;90.30;;;;;;5153074;27;20585;-80
2022/01/19 13:20:55;;;;;;;21.13;9.32;;;6.50;90.60;;;;;;5153301;27;20053;-80
2022/01/19 13:23:23;;;;;;;24.23;9.25;;;6.40;90.70;;;;;;5135822;27;20047;-80
2022/01/19 13:26:11;;;;;;;26.20;9.13;;;6.40;90.90;;;;;;5152853;27;20042;-79
2022/01/19 13:28:37;;;;;;;20.10;7.90;;;6.40;91.20;;;;;;5152966;27;20130;-80
2022/01/19 13:31:14;;;;;;;16.75;6.80;;;6.40;91.20;;;;;;5152901;27;20121;-78
2022/01/19 13:33:51;;;;;;;20.50;8.65;;;6.50;91.40;;;;;;5155470;27;20043;-80
2022/01/19 13:36:16;;;;;;;18.75;9.52;;;6.40;91.30;;;;;;5156696;27;20118;-79
2022/01/19 13:38:51;;;;;;;22.08;8.00;;;6.40;91.50;;;;;;5156925;27;20081;-79
2022/01/19 13:41:16;;;;;;;;;;;6.40;92.10;;;;;;5157531;27;20130;-79
2022/01/19 13:43:42;;;;;;;21.77;9.25;;;6.40;92.50;;;;;;5138270;27;20357;-80
2022/01/19 13:46:16;;;;;;;25.42;8.85;;;6.30;92.60;;;;;;5156194;27;20039;-79
2022/01/19 13:48:45;;;;;;;20.98;9.40;;;6.20;93.50;;;;;;5140756;27;20425;-79
2022/01/19 13:51:14;;;;;;;37.13;11.35;;;6.20;93.40;;;;;;5139382;27;20045;-80
2022/01/19 13:53:53;;;;;;;23.63;10.30;;;6.20;94.20;;;;;;5156672;27;20041;-80
2022/01/19 13:56:35;;;;;;;35.30;10.95;;;6.10;94.00;;;;;;5139159;27;20082;-79
2022/01/19 13:59:07;;;;;;;22.15;9.20;;;6.20;94.60;;;;;;5139122;27;20047;-80
2022/01/19 14:01:58;;;;;;;29.05;9.10;;;6.10;94.90;;;;;;5156279;27;20043;-80
2022/01/19 14:04:33;;;;;;;21.75;9.80;;;6.10;95.00;;;;;;5139218;27;20035;-78
2022/01/19 14:07:10;;;;;;;23.77;8.85;;;6.10;95.40;;;;;;5139021;27;20390;-78
2022/01/19 14:09:36;;;;;;;39.08;11.55;;;6.10;95.50;;;;;;5156368;27;20050;-78
2022/01/19 14:12:06;;;;;;;28.02;10.35;;;6.10;95.80;;;;;;5156281;27;20082;-78
2022/01/19 14:15:00;;;;;;;26.80;11.20;;;6.10;96.00;;;;;;5138935;27;20038;-77
2022/01/19 14:17:36;;;;;;;31.45;10.32;;;6.10;95.90;;;;;;5156284;27;20043;-77
2022/01/19 14:20:03;;;;;;;27.33;10.48;;;6.20;96.20;;;;;;5156005;27;20039;-78
2022/01/19 14:22:31;;;;;;;31.20;11.80;;;6.10;96.20;;;;;;5138638;27;20043;-77